Time;durP1;ratioP1;P1;durP2;ratioP2;P2;SDS_P1;SDS_P2;PMS_P1;PMS_P2;Temp;Humidity;BMP_temperature;BMP_pressure;BME280_temperature;BME280_humidity;BME280_pressure;Samples;Min_cycle;Max_cycle;Signal;HPM_P1;HPM_P2
2021/05/19 00:00:51;;;;;;;20.05;14.85;;;;;;;13.12;100.00;98467.67;1711359;83;21084;-78
2021/05/19 00:03:18;;;;;;;17.55;13.55;;;;;;;13.14;100.00;98467.09;1659157;86;21118;-78
2021/05/19 00:05:45;;;;;;;28.87;14.68;;;;;;;13.17;100.00;98470.81;1631653;82;21154;-70
2021/05/19 00:08:12;;;;;;;19.27;13.75;;;;;;;13.18;100.00;98471.65;1624253;87;21123;-72
2021/05/19 00:10:40;;;;;;;18.65;13.68;;;;;;;13.14;100.00;98473.69;1624240;88;21868;-71
2021/05/19 00:13:07;;;;;;;17.60;13.95;;;;;;;13.17;100.00;98482.70;1624247;88;21649;-70
2021/05/19 00:15:35;;;;;;;24.30;13.83;;;;;;;13.17;100.00;98484.03;1623943;86;21098;-71
2021/05/19 00:18:05;;;;;;;18.82;14.03;;;;;;;13.16;100.00;98481.03;1655148;85;21143;-71
2021/05/19 00:20:33;;;;;;;20.50;14.45;;;;;;;13.16;100.00;98482.36;1641729;80;21613;-79
2021/05/19 00:23:00;;;;;;;15.25;12.43;;;;;;;13.16;100.00;98476.23;1640902;86;21084;-78
2021/05/19 00:25:27;;;;;;;18.85;13.95;;;;;;;13.13;100.00;98478.59;1644000;86;21117;-77
2021/05/19 00:27:55;;;;;;;19.32;14.18;;;;;;;13.15;100.00;98478.01;1645497;87;21151;-76
2021/05/19 00:30:22;;;;;;;18.07;12.90;;;;;;;13.15;100.00;98474.05;1645154;87;21574;-77
2021/05/19 00:32:49;;;;;;;19.00;13.72;;;;;;;13.17;100.00;98477.42;1645534;87;21140;-77
2021/05/19 00:35:16;;;;;;;16.37;13.08;;;;;;;13.18;100.00;98475.16;1661169;83;21107;-72
2021/05/19 00:37:44;;;;;;;26.52;14.98;;;;;;;13.17;100.00;98465.52;1681607;85;21148;-72
2021/05/19 00:40:13;;;;;;;20.68;14.65;;;;;;;13.19;100.00;98468.91;1681731;85;21238;-72
2021/05/19 00:42:40;;;;;;;22.42;14.38;;;;;;;13.20;100.00;98470.61;1681501;85;21079;-71
2021/05/19 00:45:09;;;;;;;24.80;14.28;;;;;;;13.22;100.00;98464.70;1681457;85;21107;-71
2021/05/19 00:47:40;;;;;;;21.00;15.03;;;;;;;13.24;100.00;98465.91;1681736;85;21127;-70
2021/05/19 00:50:10;;;;;;;;;;;;;;;13.26;100.00;98468.45;1677794;81;21089;-80
2021/05/19 00:52:37;;;;;;;24.02;15.03;;;;;;;13.26;100.00;98463.17;1685879;84;21190;-80
2021/05/19 00:55:07;;;;;;;22.87;15.50;;;;;;;13.23;100.00;98459.80;1735344;82;21025;-79
2021/05/19 00:57:34;;;;;;;21.52;15.98;;;;;;;13.22;100.00;98463.86;1735429;82;21123;-82
2021/05/19 01:00:08;;;;;;;24.20;16.20;;;;;;;13.19;100.00;98459.65;1705308;83;21061;-83
2021/05/19 01:02:36;;;;;;;22.40;15.83;;;;;;;13.18;100.00;98457.11;1704233;83;21092;-81
2021/05/19 01:05:08;;;;;;;20.77;14.43;;;;;;;13.16;100.00;98460.38;1685506;81;21675;-69
2021/05/19 01:10:42;;;;;;;15.48;12.33;;;;;;;13.11;100.00;98455.43;1616016;88;21093;-71
2021/05/19 01:13:09;;;;;;;21.73;15.38;;;;;;;13.09;100.00;98449.41;1633372;86;22093;-71
2021/05/19 01:15:37;;;;;;;21.35;15.03;;;;;;;13.10;100.00;98456.37;1648239;85;21116;-70
2021/05/19 01:18:06;;;;;;;23.92;14.93;;;;;;;13.07;100.00;98455.28;1647917;87;21197;-70
2021/05/19 01:20:34;;;;;;;17.98;15.10;;;;;;;13.06;100.00;98456.22;1707746;80;21044;-80
2021/05/19 01:24:59;;;;;;;22.17;14.75;;;;;;;13.11;100.00;98458.08;1813421;79;23175;-79
2021/05/19 01:27:27;;;;;;;15.98;13.18;;;;;;;13.06;100.00;98468.12;1786632;80;21254;-79
2021/05/19 01:29:57;;;;;;;19.67;14.95;;;;;;;13.06;100.00;98465.47;1745876;80;21132;-80
2021/05/19 01:32:25;;;;;;;20.60;16.07;;;;;;;13.08;100.00;98468.02;1771219;80;21051;-79
2021/05/19 01:34:52;;;;;;;18.95;14.60;;;;;;;13.09;100.00;98468.36;1734618;78;21069;-70
2021/05/19 01:37:18;;;;;;;23.85;16.40;;;;;;;13.08;100.00;98463.56;1703987;84;21064;-70
2021/05/19 01:39:47;;;;;;;16.42;12.80;;;;;;;13.08;100.00;98470.17;1704261;84;20999;-70
2021/05/19 01:42:15;;;;;;;17.85;14.45;;;;;;;13.08;100.00;98465.38;1723967;83;21167;-72
2021/05/19 01:44:43;;;;;;;19.70;15.70;;;;;;;13.10;100.00;98470.91;1735296;82;21052;-70
2021/05/19 01:47:12;;;;;;;23.67;16.37;;;;;;;13.12;100.00;98461.55;1711232;81;21020;-71
2021/05/19 01:49:43;;;;;;;19.27;15.70;;;;;;;13.12;100.00;98463.71;1689569;80;21627;-83
2021/05/19 01:52:11;;;;;;;;;;;;;;;13.12;100.00;98462.88;1712222;83;21162;-82
2021/05/19 01:54:41;;;;;;;22.02;17.87;;;;;;;13.12;100.00;98468.16;1709858;83;21641;-78
2021/05/19 01:57:10;;;;;;;21.87;16.97;;;;;;;13.11;100.00;98472.61;1723807;82;21107;-77
2021/05/19 01:59:38;;;;;;;20.00;16.17;;;;;;;13.11;100.00;98476.57;1706295;82;21121;-78
2021/05/19 02:02:07;;;;;;;20.72;15.63;;;;;;;13.10;100.00;98485.44;1688823;84;21101;-79
2021/05/19 02:04:34;;;;;;;24.32;16.85;;;;;;;13.07;100.00;98485.67;1675098;80;21087;-73
2021/05/19 02:07:01;;;;;;;20.57;16.52;;;;;;;13.07;100.00;98485.67;1628870;88;21749;-74
2021/05/19 02:09:34;;;;;;;20.62;16.45;;;;;;;13.06;100.00;98473.41;1628365;88;21102;-74
2021/05/19 02:12:13;;;;;;;12.85;9.65;;;;;;;13.08;100.00;98474.14;1626443;88;21063;-75
2021/05/19 02:14:41;;;;;;;19.10;14.73;;;;;;;13.07;100.00;98475.10;1603149;88;21115;-74
2021/05/19 02:17:09;;;;;;;22.15;15.15;;;;;;;13.08;100.00;98480.74;1603115;89;21645;-73
2021/05/19 02:19:42;;;;;;;21.20;15.68;;;;;;;13.06;100.00;98478.69;1617995;81;21116;-80
2021/05/19 02:22:08;;;;;;;24.72;16.62;;;;;;;13.05;100.00;98486.27;1655266;86;21086;-78
2021/05/19 02:24:40;;;;;;;22.25;17.57;;;;;;;13.05;100.00;98488.91;1651528;86;21156;-79
2021/05/19 02:27:07;;;;;;;18.57;14.60;;;;;;;13.06;100.00;98490.58;1654423;86;21149;-80
2021/05/19 02:29:36;;;;;;;24.57;17.80;;;;;;;13.05;100.00;98490.23;1654399;86;21132;-80
2021/05/19 02:32:04;;;;;;;20.20;15.35;;;;;;;13.05;100.00;98492.87;1630877;86;21126;-80
2021/05/19 02:34:31;;;;;;;21.77;16.67;;;;;;;13.03;100.00;98504.03;1627284;82;21167;-75
2021/05/19 02:36:59;;;;;;;22.52;17.48;;;;;;;12.99;100.00;98496.78;1733563;82;21073;-75
2021/05/19 02:39:26;;;;;;;21.82;16.05;;;;;;;13.00;100.00;98500.30;1733676;82;21076;-76
2021/05/19 02:41:56;;;;;;;27.25;18.48;;;;;;;12.99;100.00;98494.14;1733395;82;21173;-75
2021/05/19 02:44:23;;;;;;;24.02;17.75;;;;;;;12.99;100.00;98495.95;1733451;81;21120;-74
2021/05/19 02:46:51;;;;;;;23.38;16.97;;;;;;;13.01;100.00;98496.69;1733662;81;21088;-77
2021/05/19 02:49:18;;;;;;;23.55;17.40;;;;;;;13.04;100.00;98501.73;1725980;81;21030;-79
2021/05/19 02:51:46;;;;;;;22.98;15.98;;;;;;;13.07;100.00;98500.21;1572959;91;21124;-77
2021/05/19 02:54:13;;;;;;;26.40;16.87;;;;;;;13.10;100.00;98505.75;1573825;90;21065;-78
2021/05/19 02:56:40;;;;;;;24.10;17.67;;;;;;;13.11;100.00;98508.29;1568763;91;21646;-77
2021/05/19 02:59:07;;;;;;;20.40;14.87;;;;;;;13.15;100.00;98514.17;1568884;91;21133;-78
2021/05/19 03:01:34;;;;;;;24.47;17.98;;;;;;;13.18;100.00;98522.73;1585836;87;21100;-77
2021/05/19 03:04:21;;;;;;;19.35;14.60;;;;;;;13.22;100.00;98520.69;1597512;87;21010;-78
2021/05/19 03:06:48;;;;;;;25.27;18.12;;;;;;;13.27;100.00;98515.07;1679229;85;21088;-73
2021/05/19 03:09:15;;;;;;;25.32;19.20;;;;;;;13.33;100.00;98521.27;1679132;85;21172;-74
2021/05/19 03:11:42;;;;;;;19.98;15.58;;;;;;;13.35;100.00;98510.11;1695842;84;21038;-74
2021/05/19 03:14:10;;;;;;;23.80;17.65;;;;;;;13.34;100.00;98511.91;1707502;83;21568;-73
2021/05/19 03:16:37;;;;;;;24.98;18.15;;;;;;;13.37;100.00;98508.19;1707594;84;21707;-74
2021/05/19 03:19:26;;;;;;;23.47;18.30;;;;;;;13.42;100.00;98503.40;1707408;84;21078;-74
2021/05/19 03:21:55;;;;;;;24.57;18.45;;;;;;;13.46;100.00;98503.99;1671154;85;21669;-82
2021/05/19 03:24:22;;;;;;;27.32;17.85;;;;;;;13.49;100.00;98507.27;1670935;85;21083;-77
2021/05/19 03:26:50;;;;;;;24.00;17.37;;;;;;;13.55;100.00;98510.78;1631241;86;21160;-79
2021/05/19 03:29:17;;;;;;;25.62;17.73;;;;;;;13.60;100.00;98516.56;1651960;85;21177;-79
2021/05/19 03:31:44;;;;;;;21.70;16.52;;;;;;;13.63;100.00;98515.00;1650540;85;21691;-78
2021/05/19 03:34:31;;;;;;;23.22;16.40;;;;;;;13.63;100.00;98518.97;1655473;85;21099;-77
2021/05/19 03:36:58;;;;;;;20.92;17.35;;;;;;;13.63;100.00;98518.97;1623653;87;21155;-74
2021/05/19 03:39:25;;;;;;;25.37;17.17;;;;;;;13.66;100.00;98523.67;1636135;86;21127;-75
2021/05/19 03:41:52;;;;;;;20.92;16.12;;;;;;;13.70;100.00;98525.97;1633594;86;21098;-75
2021/05/19 03:44:19;;;;;;;21.90;16.27;;;;;;;13.73;100.00;98530.18;1634804;86;21107;-76
2021/05/19 03:46:48;;;;;;;20.80;14.73;;;;;;;13.71;100.00;98532.09;1636631;86;21188;-75
2021/05/19 03:49:28;;;;;;;19.85;15.78;;;;;;;13.71;100.00;98530.31;1631144;86;21653;-71
2021/05/19 03:51:54;;;;;;;20.95;16.50;;;;;;;13.76;100.00;98534.77;1620097;87;21147;-69
2021/05/19 03:54:21;;;;;;;20.12;14.93;;;;;;;13.77;100.00;98529.00;1604081;86;21146;-70
2021/05/19 03:56:50;;;;;;;22.98;16.57;;;;;;;13.78;100.00;98530.67;1612387;88;21135;-74
2021/05/19 03:59:17;;;;;;;23.05;16.42;;;;;;;13.80;100.00;98524.78;1605807;87;21095;-70
2021/05/19 04:01:44;;;;;;;22.32;16.90;;;;;;;13.83;100.00;98524.58;1608068;88;21104;-69
2021/05/19 04:04:11;;;;;;;22.22;14.60;;;;;;;13.90;100.00;98516.53;1612257;88;21083;-70
2021/05/19 04:06:38;;;;;;;15.95;12.25;;;;;;;13.94;100.00;98516.66;1673212;81;21117;-67
2021/05/19 04:09:07;;;;;;;19.25;15.75;;;;;;;14.02;100.00;98513.41;1677385;83;21080;-65
2021/05/19 04:11:34;;;;;;;19.65;13.65;;;;;;;14.11;100.00;98515.84;1670910;85;21677;-65
2021/05/19 04:14:01;;;;;;;19.85;15.23;;;;;;;14.19;100.00;98514.75;1670025;85;21091;-70
2021/05/19 04:16:29;;;;;;;20.12;15.40;;;;;;;14.27;100.00;98513.69;1670992;85;21134;-68
2021/05/19 04:18:58;;;;;;;18.75;14.60;;;;;;;14.37;100.00;98517.28;1670849;85;21733;-69
2021/05/19 04:21:25;;;;;;;19.75;14.50;;;;;;;14.45;100.00;98512.25;1729558;81;21103;-70
2021/05/19 04:23:52;;;;;;;21.25;15.60;;;;;;;14.54;100.00;98515.11;1712693;82;21481;-70
2021/05/19 04:26:22;;;;;;;19.85;14.50;;;;;;;14.58;100.00;98508.65;1694057;83;21127;-71
2021/05/19 04:28:49;;;;;;;22.02;14.43;;;;;;;14.68;100.00;98517.56;1682678;84;21049;-72
2021/05/19 04:31:16;;;;;;;19.85;15.08;;;;;;;14.74;100.00;98518.38;1694952;84;21700;-70
2021/05/19 04:33:43;;;;;;;20.68;15.00;;;;;;;14.84;100.00;98512.72;1685916;84;21095;-69
2021/05/19 04:36:11;;;;;;;18.07;14.05;;;;;;;15.04;99.75;98516.39;1672150;81;21650;-71
2021/05/19 04:38:38;;;;;;;19.37;12.28;;;;;;;15.33;99.79;98508.38;1660992;85;21067;-70
2021/05/19 04:41:06;;;;;;;18.70;14.03;;;;;;;15.67;98.69;98505.09;1675520;85;21137;-70
2021/05/19 04:43:33;;;;;;;21.73;13.40;;;;;;;15.96;97.42;98493.34;1678817;85;21107;-70
2021/05/19 04:46:01;;;;;;;17.55;14.73;;;;;;;16.23;95.59;98495.95;1668823;85;21586;-70
2021/05/19 04:48:29;;;;;;;15.53;13.00;;;;;;;16.61;93.52;98502.38;1665445;85;22248;-70
2021/05/19 04:50:56;;;;;;;17.40;13.93;;;;;;;16.94;91.69;98503.42;1675266;81;21617;-71
2021/05/19 04:53:23;;;;;;;16.77;13.55;;;;;;;17.15;89.54;98503.81;1723224;81;21085;-69
2021/05/19 04:55:52;;;;;;;16.67;12.45;;;;;;;17.17;88.49;98500.03;1723440;81;21635;-71
2021/05/19 04:58:20;;;;;;;19.52;13.72;;;;;;;17.25;87.88;98503.31;1724186;83;21636;-70
2021/05/19 05:00:46;;;;;;;14.80;12.40;;;;;;;17.26;85.74;98502.36;1718665;83;21134;-70
2021/05/19 05:03:13;;;;;;;15.88;12.50;;;;;;;17.20;84.59;98502.41;1723158;81;21182;-71
2021/05/19 05:05:41;;;;;;;18.42;14.05;;;;;;;17.14;85.21;98500.81;1709986;82;21090;-71
2021/05/19 05:08:08;;;;;;;14.33;12.10;;;;;;;17.06;85.02;98503.31;1696744;83;21139;-71
2021/05/19 05:10:35;;;;;;;16.65;14.58;;;;;;;16.93;84.49;98495.11;1695006;84;21146;-71
2021/05/19 05:13:03;;;;;;;15.32;12.58;;;;;;;16.82;84.46;98500.54;1682927;84;21928;-71
2021/05/19 05:15:30;;;;;;;13.98;11.65;;;;;;;16.75;84.35;98502.86;1692808;84;21654;-70
2021/05/19 05:17:58;;;;;;;14.70;12.47;;;;;;;16.65;84.92;98507.79;1692711;84;21043;-71
2021/05/19 05:20:25;;;;;;;14.60;11.45;;;;;;;16.63;85.45;98512.39;1693739;82;21119;-71
2021/05/19 05:22:54;;;;;;;18.87;12.70;;;;;;;16.69;85.91;98514.52;1672832;84;21092;-69
2021/05/19 05:25:22;;;;;;;15.53;12.47;;;;;;;16.76;85.90;98510.34;1687737;83;22116;-71
2021/05/19 05:27:51;;;;;;;13.75;11.12;;;;;;;16.74;84.28;98508.30;1705968;83;21115;-71
2021/05/19 05:30:18;;;;;;;17.42;12.65;;;;;;;16.56;83.89;98507.63;1687393;83;21108;-71
2021/05/19 05:32:45;;;;;;;18.73;14.03;;;;;;;16.34;84.55;98514.45;1685645;84;21147;-70
2021/05/19 05:35:12;;;;;;;21.30;17.48;;;;;;;16.20;86.11;98520.13;1683168;81;21237;-68
2021/05/19 05:37:39;;;;;;;14.73;12.13;;;;;;;16.15;86.95;98516.53;1752539;80;21056;-70
2021/05/19 05:40:09;;;;;;;39.55;30.30;;;;;;;16.05;85.64;98519.11;1674687;83;21560;-69
2021/05/19 05:42:35;;;;;;;26.35;21.25;;;;;;;16.01;87.84;98521.70;1707122;82;21111;-73
2021/05/19 05:45:04;;;;;;;14.90;13.08;;;;;;;15.98;87.81;98519.77;1690725;82;21659;-74
2021/05/19 05:47:31;;;;;;;19.52;15.93;;;;;;;16.01;87.46;98527.01;1689018;82;21067;-73
2021/05/19 05:49:58;;;;;;;17.00;14.18;;;;;;;15.99;87.34;98522.31;1692137;80;21101;-67
2021/05/19 05:52:25;;;;;;;18.12;13.85;;;;;;;16.01;87.08;98527.01;1816754;78;21074;-70
2021/05/19 05:54:52;;;;;;;27.45;19.92;;;;;;;16.00;87.77;98524.47;1796868;78;21067;-71
2021/05/19 05:57:19;;;;;;;17.80;14.33;;;;;;;16.07;87.90;98525.14;1799625;78;21565;-71
2021/05/19 05:59:46;;;;;;;20.23;17.12;;;;;;;16.21;87.75;98516.48;1812249;78;21200;-72
2021/05/19 06:02:13;;;;;;;16.42;13.72;;;;;;;16.38;88.10;98512.36;1804040;78;21051;-72
2021/05/19 06:04:40;;;;;;;19.48;14.50;;;;;;;16.49;84.53;98515.77;1784967;80;21677;-71
2021/05/19 06:07:07;;;;;;;25.17;19.35;;;;;;;16.64;84.94;98515.42;1714404;80;21044;-73
2021/05/19 06:09:35;;;;;;;18.32;13.62;;;;;;;16.82;84.11;98522.27;1623069;85;21487;-72
2021/05/19 06:12:04;;;;;;;18.37;13.75;;;;;;;17.10;82.95;98525.50;1634161;86;21088;-72
2021/05/19 06:14:31;;;;;;;25.48;17.50;;;;;;;17.43;81.81;98527.92;1625441;86;21160;-72
2021/05/19 06:17:02;;;;;;;14.68;12.55;;;;;;;17.75;80.14;98525.80;1636050;84;21136;-71
2021/05/19 06:19:28;;;;;;;16.35;13.83;;;;;;;18.13;77.70;98529.91;1636031;86;21103;-72
2021/05/19 06:21:55;;;;;;;15.60;12.47;;;;;;;18.53;77.21;98528.82;1682900;82;22292;-72
2021/05/19 06:24:22;;;;;;;15.98;12.33;;;;;;;18.82;73.53;98539.39;1729677;81;21102;-71
2021/05/19 06:26:49;;;;;;;24.92;14.80;;;;;;;18.90;72.95;98542.14;1732930;81;21136;-70
2021/05/19 06:29:17;;;;;;;16.82;11.80;;;;;;;19.02;73.30;98546.28;1749115;80;21603;-72
2021/05/19 06:31:44;;;;;;;14.98;12.40;;;;;;;19.21;70.66;98543.15;1745811;80;21062;-72
2021/05/19 06:34:11;;;;;;;13.53;9.53;;;;;;;19.22;70.13;98550.18;1749329;80;21679;-73
2021/05/19 06:36:41;;;;;;;12.85;11.00;;;;;;;19.19;68.55;98549.99;1749078;78;21120;-73
2021/05/19 06:39:07;;;;;;;16.45;13.98;;;;;;;19.18;68.91;98551.47;1756696;80;21543;-73
2021/05/19 06:41:34;;;;;;;14.35;9.70;;;;;;;19.33;69.38;98559.81;1757169;80;21124;-73
2021/05/19 06:44:01;;;;;;;17.25;11.97;;;;;;;19.36;67.25;98563.00;1756395;80;21088;-73
2021/05/19 06:46:28;;;;;;;13.45;10.18;;;;;;;19.28;67.01;98561.60;1757068;80;21115;-73
2021/05/19 06:49:02;;;;;;;13.55;10.08;;;;;;;19.02;67.22;98574.30;1773004;79;21155;-78
2021/05/19 06:51:24;;;;;;;15.43;11.03;;;;;;;18.86;67.28;98569.63;1754093;78;21879;-80
2021/05/19 06:53:51;;;;;;;13.10;8.65;;;;;;;18.71;68.53;98567.55;1735642;82;21100;-70
2021/05/19 06:56:18;;;;;;;11.60;8.18;;;;;;;18.54;66.76;98577.14;1733122;81;21069;-72
2021/05/19 06:58:45;;;;;;;13.00;9.78;;;;;;;18.41;67.35;98576.97;1734941;82;21164;-72
2021/05/19 07:01:12;;;;;;;13.10;9.35;;;;;;;18.34;68.13;98573.70;1737331;82;21088;-73
2021/05/19 07:03:39;;;;;;;14.33;9.55;;;;;;;18.30;68.87;98581.63;1735725;81;21171;-72
2021/05/19 07:06:06;;;;;;;13.68;9.65;;;;;;;18.28;70.20;98576.94;1713763;81;21323;-75
2021/05/19 07:08:34;;;;;;;12.82;9.73;;;;;;;18.23;69.15;98569.38;1657417;84;21095;-74
2021/05/19 07:11:01;;;;;;;12.03;9.43;;;;;;;18.29;70.45;98579.94;1660392;86;21763;-74
2021/05/19 07:13:28;;;;;;;13.15;10.10;;;;;;;18.42;70.83;98579.14;1660145;85;21659;-74
2021/05/19 07:15:56;;;;;;;18.32;11.20;;;;;;;18.53;69.12;98576.30;1660318;86;21091;-75
2021/05/19 07:18:24;;;;;;;8.38;7.08;;;;;;;18.58;69.07;98569.20;1687569;84;21121;-75
2021/05/19 07:20:53;;;;;;;14.60;7.42;;;;;;;18.60;66.65;98577.40;1697674;79;21557;-73
2021/05/19 07:23:20;;;;;;;13.43;8.70;;;;;;;18.63;66.60;98577.59;1723632;80;21134;-72
2021/05/19 07:25:47;;;;;;;10.30;7.05;;;;;;;18.69;68.04;98577.52;1729652;80;21068;-74
2021/05/19 07:28:14;;;;;;;7.90;5.70;;;;;;;18.73;65.63;98584.25;1706607;82;21125;-73
2021/05/19 07:30:43;;;;;;;8.78;6.47;;;;;;;18.74;63.12;98585.91;1720383;82;21094;-71
2021/05/19 07:33:11;;;;;;;8.80;5.50;;;;;;;18.75;63.22;98582.25;1724825;81;21129;-72
2021/05/19 07:35:39;;;;;;;9.23;5.80;;;;;;;18.86;63.96;98580.30;1724264;80;21026;-73
2021/05/19 07:38:08;;;;;;;7.90;5.30;;;;;;;18.98;64.61;98585.41;1720929;83;21055;-75
2021/05/19 07:40:36;;;;;;;17.35;6.00;;;;;;;19.01;62.72;98580.63;1720546;82;21149;-74
2021/05/19 07:43:02;;;;;;;18.70;6.75;;;;;;;19.20;62.42;98585.02;1721141;82;21616;-73
2021/05/19 07:45:29;;;;;;;6.35;4.17;;;;;;;19.42;63.12;98589.61;1721242;83;21150;-74
2021/05/19 07:47:57;;;;;;;9.18;5.03;;;;;;;19.45;62.50;98601.31;1717426;83;21129;-75
2021/05/19 07:50:44;;;;;;;6.53;3.42;;;;;;;19.25;60.45;98600.58;1717621;83;21054;-74
2021/05/19 07:53:11;;;;;;;9.03;3.45;;;;;;;19.10;59.38;98598.08;1680231;84;21107;-72
2021/05/19 07:58:31;;;;;;;4.95;2.40;;;;;;;19.07;58.50;98596.05;1632238;83;28564;-72
2021/05/19 08:03:23;;;;;;;2.67;2.02;;;;;;;19.39;56.97;98604.06;1658975;84;21100;-73
2021/05/19 08:05:50;;;;;;;1.52;1.10;;;;;;;19.89;54.10;98598.26;1658757;83;21263;-74
2021/05/19 08:08:19;;;;;;;2.47;2.00;;;;;;;20.33;48.52;98588.91;1680370;84;21123;-74
2021/05/19 08:10:46;;;;;;;9.20;2.17;;;;;;;20.55;50.58;98589.41;1680368;84;21095;-74
2021/05/19 08:13:13;;;;;;;5.78;1.50;;;;;;;20.97;51.18;98593.99;1680533;83;21167;-75
2021/05/19 08:15:40;;;;;;;2.90;1.75;;;;;;;21.15;50.42;98593.91;1691081;83;21107;-75
2021/05/19 08:18:10;;;;;;;3.15;1.80;;;;;;;21.08;51.21;98601.73;1685394;83;22621;-74
2021/05/19 08:20:40;;;;;;;4.33;1.87;;;;;;;21.03;51.30;98601.39;1672391;82;25616;31
2021/05/19 08:23:07;;;;;;;6.22;2.33;;;;;;;21.01;51.47;98603.39;1644562;85;22323;-72
2021/05/19 08:25:34;;;;;;;2.10;1.90;;;;;;;21.14;53.47;98602.92;1722430;82;21136;-72
2021/05/19 08:28:01;;;;;;;9.95;2.00;;;;;;;21.10;51.41;98601.08;1732547;82;21116;-73
2021/05/19 08:30:29;;;;;;;4.05;1.80;;;;;;;20.96;52.01;98595.01;1738562;82;21775;-73
2021/05/19 08:32:56;;;;;;;3.75;1.80;;;;;;;20.77;53.04;98605.93;1738773;82;21032;-73
2021/05/19 08:35:22;;;;;;;5.30;2.40;;;;;;;20.63;53.54;98608.19;1685567;84;21120;-74
2021/05/19 08:37:50;;;;;;;3.98;1.90;;;;;;;20.41;54.52;98615.39;1702750;79;21096;-74
2021/05/19 08:40:17;;;;;;;4.95;2.05;;;;;;;20.27;54.46;98618.95;1700274;82;21140;-76
2021/05/19 08:42:45;;;;;;;9.43;4.22;;;;;;;20.27;54.13;98614.95;1702377;82;21639;-75
2021/05/19 08:45:14;;;;;;;8.80;2.10;;;;;;;20.29;55.45;98618.31;1701373;81;21195;-76
2021/05/19 08:47:40;;;;;;;5.45;3.00;;;;;;;20.36;51.08;98621.67;1701165;82;21066;-74
2021/05/19 08:50:09;;;;;;;5.05;2.50;;;;;;;20.27;54.15;98621.63;1701140;84;21169;-74
2021/05/19 08:52:41;;;;;;;7.22;2.15;;;;;;;20.20;51.89;98625.92;1759569;80;21275;-72
2021/05/19 08:55:13;;;;;;;8.75;3.40;;;;;;;20.06;53.50;98631.80;1740401;82;21149;-73
2021/05/19 08:57:41;;;;;;;4.47;1.60;;;;;;;19.79;54.75;98636.24;1708735;83;21184;-72
2021/05/19 09:00:10;;;;;;;5.37;1.55;;;;;;;19.73;52.46;98635.50;1742449;80;21696;-73
2021/05/19 09:02:37;;;;;;;5.70;2.10;;;;;;;19.55;51.71;98637.28;1742049;81;21101;-71
2021/05/19 09:05:06;;;;;;;7.25;2.22;;;;;;;19.38;53.65;98643.78;1732420;82;21643;-72
2021/05/19 09:07:36;;;;;;;24.07;3.10;;;;;;;19.18;53.61;98645.69;1717654;81;21104;-73
2021/05/19 09:10:18;;;;;;;6.00;1.75;;;;;;;19.15;55.46;98642.50;1723707;80;21525;-75
2021/05/19 09:12:45;;;;;;;6.00;2.05;;;;;;;19.11;54.43;98641.11;1726423;80;21031;-74
2021/05/19 09:15:13;;;;;;;3.50;2.10;;;;;;;19.17;55.36;98637.86;1724858;81;21658;-74
2021/05/19 09:17:42;;;;;;;4.45;1.67;;;;;;;19.31;55.33;98640.02;1729098;80;21116;-72
2021/05/19 09:20:14;;;;;;;2.37;1.82;;;;;;;19.32;53.37;98637.69;1726632;81;21103;-75
2021/05/19 09:22:45;;;;;;;4.67;1.75;;;;;;;19.35;54.73;98638.75;1692758;80;21100;-70
2021/05/19 09:25:26;;;;;;;2.58;1.60;;;;;;;19.42;54.12;98634.48;1659642;84;21153;-71
2021/05/19 09:27:50;;;;;;;3.85;1.85;;;;;;;19.48;53.30;98639.70;1688692;84;21104;-72
2021/05/19 09:30:47;;;;;;;15.43;2.65;;;;;;;19.64;54.52;98629.70;1649485;84;21089;-70
2021/05/19 09:33:24;;;;;;;7.60;1.57;;;;;;;19.94;54.61;98630.36;1667251;84;21145;-72
2021/05/19 09:36:21;;;;;;;4.05;2.60;;;;;;;20.51;51.78;98630.82;1697634;84;21080;-72
2021/05/19 09:38:51;;;;;;;4.25;1.75;;;;;;;21.00;51.12;98623.09;1673865;84;21126;-71
2021/05/19 09:41:28;;;;;;;5.45;2.05;;;;;;;21.28;49.23;98618.86;1672720;84;21122;-74
2021/05/19 09:43:58;;;;;;;6.53;2.05;;;;;;;21.38;48.87;98615.06;1654423;85;21565;-74
2021/05/19 09:49:23;;;;;;;4.37;1.95;;;;;;;21.79;49.60;98618.38;1638130;86;21133;-75
2021/05/19 09:51:53;;;;;;;3.77;1.80;;;;;;;21.86;48.77;98618.05;1639069;83;21130;-71
2021/05/19 09:54:41;;;;;;;3.12;2.20;;;;;;;21.94;47.45;98619.38;1637566;86;21081;-71
2021/05/19 09:57:10;;;;;;;15.78;2.50;;;;;;;22.09;48.43;98617.40;1617375;86;21083;-70
2021/05/19 09:59:43;;;;;;;5.05;1.57;;;;;;;22.59;46.91;98616.36;1620399;84;21095;-72
2021/05/19 10:02:10;;;;;;;7.28;1.75;;;;;;;22.76;45.83;98618.02;1591833;88;21117;-71
2021/05/19 10:04:51;;;;;;;4.12;1.30;;;;;;;22.88;46.54;98618.99;1609199;87;21099;-74
2021/05/19 10:07:16;;;;;;;5.33;1.40;;;;;;;23.05;45.48;98613.91;1633680;83;21143;-74
2021/05/19 10:09:43;;;;;;;1.98;1.25;;;;;;;23.24;44.42;98620.23;1681750;84;21044;-75
2021/05/19 10:12:10;;;;;;;5.42;1.62;;;;;;;23.12;43.17;98616.27;1688946;84;21081;-75
2021/05/19 10:14:37;;;;;;;2.72;1.50;;;;;;;23.01;44.69;98615.30;1654301;84;21558;-75
2021/05/19 10:17:12;;;;;;;4.08;1.40;;;;;;;23.24;45.28;98619.40;1681545;83;21068;-80
2021/05/19 10:19:57;;;;;;;1.75;1.30;;;;;;;23.49;44.56;98627.31;1685202;84;21897;-80
2021/05/19 10:22:24;;;;;;;1.70;0.72;;;;;;;23.58;43.54;98624.43;1696799;80;21080;-74
2021/05/19 10:25:04;;;;;;;0.95;0.88;;;;;;;23.20;43.56;98625.61;1698882;83;21130;-71
2021/05/19 10:28:00;;;;;;;3.55;1.52;;;;;;;23.01;43.33;98619.32;1733241;82;21084;-70
2021/05/19 10:30:50;;;;;;;2.40;1.27;;;;;;;22.81;44.88;98623.70;1694515;84;21078;-71
2021/05/19 10:33:44;;;;;;;2.25;1.00;;;;;;;22.67;44.90;98619.04;1728779;82;21176;-71
2021/05/19 10:36:38;;;;;;;4.55;1.32;;;;;;;22.49;45.05;98629.13;1728905;82;21112;-71
2021/05/19 10:39:16;;;;;;;4.20;2.42;;;;;;;22.31;46.52;98631.48;1625119;86;21145;-74
2021/05/19 10:41:49;;;;;;;6.03;1.60;;;;;;;22.16;48.54;98611.70;1639853;85;21117;-76
2021/05/19 10:44:22;;;;;;;6.00;1.90;;;;;;;22.34;46.78;98633.02;1642723;85;21568;-74
2021/05/19 10:47:10;;;;;;;7.85;1.95;;;;;;;22.24;49.86;98631.82;1652427;86;21200;-77
2021/05/19 10:50:03;;;;;;;4.67;1.52;;;;;;;22.16;50.76;98635.83;1637595;86;21687;-75
2021/05/19 10:57:45;;;;;;;3.05;1.20;;;;;;;22.09;49.48;98643.70;1768903;80;21083;-73
2021/05/19 11:00:22;;;;;;;2.02;1.50;;;;;;;21.86;50.35;98643.50;1790435;80;21098;-71
2021/05/19 11:03:01;;;;;;;11.95;1.90;;;;;;;21.55;50.87;98640.06;1784104;80;21497;-73
2021/05/19 11:05:33;;;;;;;3.33;1.45;;;;;;;21.35;51.96;98642.67;1770559;80;21110;-73
2021/05/19 11:08:13;;;;;;;2.22;1.67;;;;;;;21.37;51.76;98638.84;1732050;79;21099;-73
2021/05/19 11:10:49;;;;;;;1.65;1.10;;;;;;;21.42;51.40;98643.73;1696248;83;21091;-73
2021/05/19 11:13:14;;;;;;;6.08;1.40;;;;;;;21.21;51.38;98640.59;1703851;83;21099;-71
2021/05/19 11:21:46;;;;;;;4.62;1.50;;;;;;;21.53;51.07;98645.25;1708568;83;21126;-71
2021/05/19 11:24:15;;;;;;;3.15;1.20;;;;;;;21.94;49.83;98638.14;1633990;86;21067;-74
2021/05/19 11:26:46;;;;;;;2.27;1.42;;;;;;;22.28;50.02;98642.55;1654637;86;21166;-74
2021/05/19 11:29:15;;;;;;;2.65;1.45;;;;;;;22.45;48.73;98633.16;1649651;86;21134;-75
2021/05/19 11:31:46;;;;;;;4.35;1.80;;;;;;;22.30;47.20;98637.86;1652830;85;21150;-77
2021/05/19 11:34:15;;;;;;;1.40;1.02;;;;;;;22.44;49.12;98631.48;1637349;86;21687;-79
2021/05/19 11:36:46;;;;;;;9.50;1.32;;;;;;;22.82;46.88;98628.07;1651061;81;21638;-74
2021/05/19 11:39:36;;;;;;;2.77;1.50;;;;;;;23.13;46.16;98635.38;1689675;82;21076;-74
2021/05/19 11:42:18;;;;;;;3.17;1.15;;;;;;;23.17;48.05;98638.05;1695810;82;21568;-74
2021/05/19 11:44:59;;;;;;;1.70;1.15;;;;;;;23.36;46.13;98638.64;1713918;81;29437;-74
2021/05/19 11:47:37;;;;;;;3.35;1.15;;;;;;;23.19;45.73;98641.41;1720743;81;21127;-75
2021/05/19 11:50:15;;;;;;;4.90;1.30;;;;;;;22.71;46.55;98636.99;1667434;84;21098;-74
2021/05/19 11:52:50;;;;;;;6.78;1.35;;;;;;;22.43;47.39;98627.11;1670986;80;21140;-74
2021/05/19 11:55:32;;;;;;;5.53;1.85;;;;;;;22.19;47.46;98624.76;1743425;80;21109;-74
2021/05/19 11:58:27;;;;;;;2.15;1.67;;;;;;;22.00;48.53;98626.77;1737281;81;21116;-74